sensor_id;sensor_type;location;lat;lon;timestamp;pressure;altitude;pressure_sealevel;temperature;humidity
66524;BME280;53350;52.210;5.160;2023-12-22T00:01:26;100328.91;;;8.63;75.69
66524;BME280;53350;52.210;5.160;2023-12-22T00:03:52;100347.94;;;8.41;75.22
66524;BME280;53350;52.210;5.160;2023-12-22T00:06:19;100340.63;;;8.04;74.69
66524;BME280;53350;52.210;5.160;2023-12-22T00:08:47;100318.28;;;8.15;71.78
66524;BME280;53350;52.210;5.160;2023-12-22T00:11:13;100311.50;;;8.09;71.53
66524;BME280;53350;52.210;5.160;2023-12-22T00:13:40;100295.28;;;8.09;70.39
66524;BME280;53350;52.210;5.160;2023-12-22T00:16:06;100301.34;;;8.00;69.38
66524;BME280;53350;52.210;5.160;2023-12-22T00:18:33;100306.38;;;8.08;68.42
66524;BME280;53350;52.210;5.160;2023-12-22T00:20:59;100312.38;;;8.08;69.15
66524;BME280;53350;52.210;5.160;2023-12-22T00:23:25;100323.53;;;8.06;71.11
66524;BME280;53350;52.210;5.160;2023-12-22T00:25:53;100303.88;;;8.03;72.03
66524;BME280;53350;52.210;5.160;2023-12-22T00:28:19;100296.44;;;7.78;72.91
66524;BME280;53350;52.210;5.160;2023-12-22T00:30:46;100308.25;;;7.93;73.07
66524;BME280;53350;52.210;5.160;2023-12-22T00:33:12;100303.06;;;7.99;73.61
66524;BME280;53350;52.210;5.160;2023-12-22T00:35:39;100306.47;;;8.00;73.75
66524;BME280;53350;52.210;5.160;2023-12-22T00:38:05;100308.97;;;8.06;74.05
66524;BME280;53350;52.210;5.160;2023-12-22T00:40:31;100302.13;;;8.05;74.73
66524;BME280;53350;52.210;5.160;2023-12-22T00:42:59;100302.13;;;8.08;74.85
66524;BME280;53350;52.210;5.160;2023-12-22T00:45:26;100298.56;;;8.20;74.74
66524;BME280;53350;52.210;5.160;2023-12-22T00:47:52;100306.31;;;8.15;75.00
66524;BME280;53350;52.210;5.160;2023-12-22T00:50:18;100315.69;;;8.16;75.38
66524;BME280;53350;52.210;5.160;2023-12-22T00:52:45;100321.59;;;8.25;75.19
66524;BME280;53350;52.210;5.160;2023-12-22T00:55:11;100332.69;;;8.27;75.68
66524;BME280;53350;52.210;5.160;2023-12-22T00:57:38;100336.06;;;8.32;75.73
66524;BME280;53350;52.210;5.160;2023-12-22T01:00:07;100328.28;;;8.40;75.53
66524;BME280;53350;52.210;5.160;2023-12-22T01:02:35;100332.53;;;8.42;75.75
66524;BME280;53350;52.210;5.160;2023-12-22T01:05:02;100334.22;;;8.43;76.08
66524;BME280;53350;52.210;5.160;2023-12-22T01:07:28;100347.03;;;8.48;76.14
66524;BME280;53350;52.210;5.160;2023-12-22T01:09:55;100337.69;;;8.41;76.26
66524;BME280;53350;52.210;5.160;2023-12-22T01:12:21;100340.19;;;8.47;76.51
66524;BME280;53350;52.210;5.160;2023-12-22T01:14:47;100326.50;;;8.48;76.52
66524;BME280;53350;52.210;5.160;2023-12-22T01:17:18;100330.75;;;8.52;76.29
66524;BME280;53350;52.210;5.160;2023-12-22T01:19:44;100359.72;;;8.59;75.49
66524;BME280;53350;52.210;5.160;2023-12-22T01:22:11;100357.19;;;8.57;75.87
66524;BME280;53350;52.210;5.160;2023-12-22T01:24:38;100338.34;;;8.60;75.88
66524;BME280;53350;52.210;5.160;2023-12-22T01:27:08;100344.31;;;8.60;75.94
66524;BME280;53350;52.210;5.160;2023-12-22T01:29:34;100334.88;;;8.62;76.01
66524;BME280;53350;52.210;5.160;2023-12-22T01:32:01;100328.06;;;8.60;76.02
66524;BME280;53350;52.210;5.160;2023-12-22T01:34:28;100330.66;;;8.58;76.27
66524;BME280;53350;52.210;5.160;2023-12-22T01:36:55;100340.94;;;8.58;76.19
66524;BME280;53350;52.210;5.160;2023-12-22T01:39:21;100326.41;;;8.56;76.04
66524;BME280;53350;52.210;5.160;2023-12-22T01:41:48;100336.66;;;8.56;76.01
66524;BME280;53350;52.210;5.160;2023-12-22T01:44:14;100334.91;;;8.61;75.92
66524;BME280;53350;52.210;5.160;2023-12-22T01:46:41;100335.81;;;8.57;76.02
66524;BME280;53350;52.210;5.160;2023-12-22T01:49:07;100340.09;;;8.58;76.50
66524;BME280;53350;52.210;5.160;2023-12-22T01:51:37;100333.25;;;8.55;76.16
66524;BME280;53350;52.210;5.160;2023-12-22T01:54:06;100334.97;;;8.58;76.34
66524;BME280;53350;52.210;5.160;2023-12-22T01:56:33;100325.53;;;8.57;76.62
66524;BME280;53350;52.210;5.160;2023-12-22T01:59:00;100337.53;;;8.58;76.34
66524;BME280;53350;52.210;5.160;2023-12-22T02:01:27;100338.41;;;8.55;76.65
66524;BME280;53350;52.210;5.160;2023-12-22T02:03:54;100336.66;;;8.56;76.94
66524;BME280;53350;52.210;5.160;2023-12-22T02:06:21;100335.00;;;8.55;77.10
66524;BME280;53350;52.210;5.160;2023-12-22T02:08:49;100337.59;;;8.50;77.17
66524;BME280;53350;52.210;5.160;2023-12-22T02:11:16;100323.84;;;8.54;77.17
66524;BME280;53350;52.210;5.160;2023-12-22T02:13:43;100326.38;;;8.57;77.45
66524;BME280;53350;52.210;5.160;2023-12-22T02:16:15;100329.78;;;8.61;77.44
66524;BME280;53350;52.210;5.160;2023-12-22T02:18:46;100324.75;;;8.51;77.42
66524;BME280;53350;52.210;5.160;2023-12-22T02:21:13;100323.78;;;8.60;77.12
66524;BME280;53350;52.210;5.160;2023-12-22T02:23:41;100314.28;;;8.67;76.78
66524;BME280;53350;52.210;5.160;2023-12-22T02:26:12;100298.78;;;8.73;74.95
66524;BME280;53350;52.210;5.160;2023-12-22T02:28:41;100295.38;;;8.74;74.98
66524;BME280;53350;52.210;5.160;2023-12-22T02:31:13;100302.94;;;8.85;73.32
66524;BME280;53350;52.210;5.160;2023-12-22T02:33:42;100301.13;;;8.92;72.66
66524;BME280;53350;52.210;5.160;2023-12-22T02:36:09;100304.50;;;8.95;71.53
66524;BME280;53350;52.210;5.160;2023-12-22T02:38:37;100307.00;;;9.00;70.99
66524;BME280;53350;52.210;5.160;2023-12-22T02:41:06;100304.47;;;8.98;70.60
66524;BME280;53350;52.210;5.160;2023-12-22T02:43:34;100295.75;;;9.09;69.01
66524;BME280;53350;52.210;5.160;2023-12-22T02:46:00;100302.69;;;9.02;69.49
66524;BME280;53350;52.210;5.160;2023-12-22T02:48:27;100300.78;;;9.15;67.85
66524;BME280;53350;52.210;5.160;2023-12-22T02:50:53;100308.44;;;9.18;68.18
66524;BME280;53350;52.210;5.160;2023-12-22T02:53:20;100308.38;;;9.21;67.98
66524;BME280;53350;52.210;5.160;2023-12-22T02:55:46;100307.53;;;9.22;68.08
66524;BME280;53350;52.210;5.160;2023-12-22T02:58:14;100314.28;;;9.28;67.99
66524;BME280;53350;52.210;5.160;2023-12-22T03:00:40;100297.06;;;9.34;68.12
66524;BME280;53350;52.210;5.160;2023-12-22T03:03:06;100293.56;;;9.38;68.08
66524;BME280;53350;52.210;5.160;2023-12-22T03:05:33;100295.22;;;9.41;68.27
66524;BME280;53350;52.210;5.160;2023-12-22T03:07:59;100314.06;;;9.43;67.68
66524;BME280;53350;52.210;5.160;2023-12-22T03:10:26;100318.31;;;9.44;67.81
66524;BME280;53350;52.210;5.160;2023-12-22T03:12:52;100304.47;;;9.51;67.21
66524;BME280;53350;52.210;5.160;2023-12-22T03:15:20;100328.50;;;9.50;66.62
66524;BME280;53350;52.210;5.160;2023-12-22T03:17:46;100300.16;;;9.55;66.21
66524;BME280;53350;52.210;5.160;2023-12-22T03:20:13;100300.91;;;9.60;65.44
66524;BME280;53350;52.210;5.160;2023-12-22T03:22:39;100322.44;;;9.53;65.03
66524;BME280;53350;52.210;5.160;2023-12-22T03:25:06;100325.84;;;9.56;64.67
66524;BME280;53350;52.210;5.160;2023-12-22T03:27:33;100324.03;;;9.60;64.95
66524;BME280;53350;52.210;5.160;2023-12-22T03:29:59;100324.00;;;9.65;64.90
66524;BME280;53350;52.210;5.160;2023-12-22T03:32:28;100323.94;;;9.68;64.74
66524;BME280;53350;52.210;5.160;2023-12-22T03:34:54;100317.91;;;9.70;65.04
66524;BME280;53350;52.210;5.160;2023-12-22T03:37:21;100364.22;;;9.67;65.52
66524;BME280;53350;52.210;5.160;2023-12-22T03:39:47;100391.78;;;9.61;65.80
66524;BME280;53350;52.210;5.160;2023-12-22T03:42:13;100379.22;;;9.40;67.05
66524;BME280;53350;52.210;5.160;2023-12-22T03:44:40;100370.34;;;9.02;69.23
66524;BME280;53350;52.210;5.160;2023-12-22T03:47:06;100375.81;;;8.75;71.45
66524;BME280;53350;52.210;5.160;2023-12-22T03:49:34;100377.00;;;8.43;72.79
66524;BME280;53350;52.210;5.160;2023-12-22T03:52:00;100366.72;;;8.43;72.49
66524;BME280;53350;52.210;5.160;2023-12-22T03:54:27;100360.91;;;8.28;74.13
66524;BME280;53350;52.210;5.160;2023-12-22T03:56:53;100363.47;;;8.27;74.21
66524;BME280;53350;52.210;5.160;2023-12-22T03:59:20;100350.59;;;8.34;73.98
66524;BME280;53350;52.210;5.160;2023-12-22T04:01:50;100356.53;;;8.36;74.21
66524;BME280;53350;52.210;5.160;2023-12-22T04:04:17;100356.50;;;8.40;74.09
66524;BME280;53350;52.210;5.160;2023-12-22T04:06:45;100353.06;;;8.41;74.43
66524;BME280;53350;52.210;5.160;2023-12-22T04:09:11;100352.19;;;8.46;74.67
66524;BME280;53350;52.210;5.160;2023-12-22T04:11:37;100353.00;;;8.50;74.45
66524;BME280;53350;52.210;5.160;2023-12-22T04:14:05;100348.72;;;8.52;74.85
66524;BME280;53350;52.210;5.160;2023-12-22T04:16:31;100355.44;;;8.61;74.70
66524;BME280;53350;52.210;5.160;2023-12-22T04:18:58;100361.38;;;8.64;74.28
66524;BME280;53350;52.210;5.160;2023-12-22T04:21:24;100351.03;;;8.74;74.36
66524;BME280;53350;52.210;5.160;2023-12-22T04:23:52;100347.56;;;8.76;74.23
66524;BME280;53350;52.210;5.160;2023-12-22T04:26:18;100355.22;;;8.79;74.02
66524;BME280;53350;52.210;5.160;2023-12-22T04:28:45;100342.31;;;8.85;73.47
66524;BME280;53350;52.210;5.160;2023-12-22T04:31:11;100349.16;;;8.86;73.43
66524;BME280;53350;52.210;5.160;2023-12-22T04:33:38;100348.22;;;8.92;72.82
66524;BME280;53350;52.210;5.160;2023-12-22T04:36:04;100346.41;;;8.99;71.58
66524;BME280;53350;52.210;5.160;2023-12-22T04:38:31;100340.41;;;9.00;71.47
66524;BME280;53350;52.210;5.160;2023-12-22T04:40:59;100347.19;;;9.04;71.04
66524;BME280;53350;52.210;5.160;2023-12-22T04:43:25;100343.66;;;9.11;70.28
66524;BME280;53350;52.210;5.160;2023-12-22T04:45:51;100341.00;;;9.17;69.68
66524;BME280;53350;52.210;5.160;2023-12-22T04:48:18;100350.34;;;9.23;69.49
66524;BME280;53350;52.210;5.160;2023-12-22T04:50:44;100351.88;;;9.35;68.52
66524;BME280;53350;52.210;5.160;2023-12-22T04:53:11;100343.22;;;9.40;68.53
66524;BME280;53350;52.210;5.160;2023-12-22T04:55:37;100346.56;;;9.46;68.47
66524;BME280;53350;52.210;5.160;2023-12-22T04:58:05;100338.78;;;9.50;68.98
66524;BME280;53350;52.210;5.160;2023-12-22T05:00:32;100342.13;;;9.55;69.07
66524;BME280;53350;52.210;5.160;2023-12-22T05:02:58;100348.06;;;9.61;69.29
66524;BME280;53350;52.210;5.160;2023-12-22T05:05:24;100346.28;;;9.63;69.84
66524;BME280;53350;52.210;5.160;2023-12-22T05:07:51;100348.84;;;9.64;70.43
66524;BME280;53350;52.210;5.160;2023-12-22T05:10:17;100340.22;;;9.68;70.26
66524;BME280;53350;52.210;5.160;2023-12-22T05:12:44;100338.41;;;9.73;70.20
66524;BME280;53350;52.210;5.160;2023-12-22T05:15:11;100348.59;;;9.80;70.23
66524;BME280;53350;52.210;5.160;2023-12-22T05:17:38;100334.03;;;9.79;70.02
66524;BME280;53350;52.210;5.160;2023-12-22T05:20:06;100332.25;;;9.82;69.79
66524;BME280;53350;52.210;5.160;2023-12-22T05:22:36;100319.41;;;9.82;69.85
66524;BME280;53350;52.210;5.160;2023-12-22T05:25:03;100331.34;;;9.86;69.21
66524;BME280;53350;52.210;5.160;2023-12-22T05:27:29;100333.91;;;9.86;69.22
66524;BME280;53350;52.210;5.160;2023-12-22T05:29:56;100345.84;;;9.89;68.03
66524;BME280;53350;52.210;5.160;2023-12-22T05:32:27;100345.81;;;9.90;67.78
66524;BME280;53350;52.210;5.160;2023-12-22T05:34:54;100330.31;;;9.95;67.09
66524;BME280;53350;52.210;5.160;2023-12-22T05:37:20;100331.94;;;9.99;67.00
66524;BME280;53350;52.210;5.160;2023-12-22T05:39:46;100326.81;;;10.01;67.05
66524;BME280;53350;52.210;5.160;2023-12-22T05:42:13;100323.28;;;10.05;66.93
66524;BME280;53350;52.210;5.160;2023-12-22T05:44:39;100334.47;;;10.04;67.32
66524;BME280;53350;52.210;5.160;2023-12-22T05:47:06;100329.28;;;10.05;67.79
66524;BME280;53350;52.210;5.160;2023-12-22T05:49:33;100334.38;;;10.08;68.24
66524;BME280;53350;52.210;5.160;2023-12-22T05:52:00;100332.63;;;10.09;68.72
66524;BME280;53350;52.210;5.160;2023-12-22T05:54:26;100331.72;;;10.12;68.91
66524;BME280;53350;52.210;5.160;2023-12-22T05:56:53;100322.25;;;10.14;69.20
66524;BME280;53350;52.210;5.160;2023-12-22T05:59:19;100317.97;;;10.14;69.53
66524;BME280;53350;52.210;5.160;2023-12-22T06:01:46;100338.44;;;10.20;69.59
66524;BME280;53350;52.210;5.160;2023-12-22T06:04:12;100334.97;;;10.23;69.82
66524;BME280;53350;52.210;5.160;2023-12-22T06:06:40;100339.25;;;10.24;69.86
66524;BME280;53350;52.210;5.160;2023-12-22T06:09:06;100334.91;;;10.26;70.01
66524;BME280;53350;52.210;5.160;2023-12-22T06:11:32;100336.59;;;10.27;70.02
66524;BME280;53350;52.210;5.160;2023-12-22T06:13:59;100347.78;;;10.26;70.49
66524;BME280;53350;52.210;5.160;2023-12-22T06:16:25;100358.84;;;10.31;69.95
66524;BME280;53350;52.210;5.160;2023-12-22T06:18:52;100350.22;;;10.34;69.49
66524;BME280;53350;52.210;5.160;2023-12-22T06:21:18;100348.53;;;10.30;69.61
66524;BME280;53350;52.210;5.160;2023-12-22T06:23:46;100356.25;;;10.31;69.98
66524;BME280;53350;52.210;5.160;2023-12-22T06:26:12;100351.94;;;10.32;70.28
66524;BME280;53350;52.210;5.160;2023-12-22T06:28:39;100334.72;;;10.37;70.39
66524;BME280;53350;52.210;5.160;2023-12-22T06:31:06;100334.63;;;10.41;70.19
66524;BME280;53350;52.210;5.160;2023-12-22T06:33:32;100351.78;;;10.41;70.64
66524;BME280;53350;52.210;5.160;2023-12-22T06:35:59;100344.97;;;10.38;70.61
66524;BME280;53350;52.210;5.160;2023-12-22T06:38:25;100345.84;;;10.39;70.61
66524;BME280;53350;52.210;5.160;2023-12-22T06:40:53;100329.44;;;10.44;70.72
66524;BME280;53350;52.210;5.160;2023-12-22T06:43:20;100343.06;;;10.48;70.25
66524;BME280;53350;52.210;5.160;2023-12-22T06:45:46;100335.38;;;10.47;70.47
66524;BME280;53350;52.210;5.160;2023-12-22T06:48:13;100340.50;;;10.48;70.38
66524;BME280;53350;52.210;5.160;2023-12-22T06:50:39;100343.88;;;10.52;70.61
66524;BME280;53350;52.210;5.160;2023-12-22T06:53:10;100332.81;;;10.47;70.94
66524;BME280;53350;52.210;5.160;2023-12-22T06:55:36;100332.72;;;10.51;71.07
66524;BME280;53350;52.210;5.160;2023-12-22T06:58:04;100334.44;;;10.51;71.36
66524;BME280;53350;52.210;5.160;2023-12-22T07:00:30;100340.44;;;10.51;71.55
66524;BME280;53350;52.210;5.160;2023-12-22T07:02:57;100335.25;;;10.54;71.32
66524;BME280;53350;52.210;5.160;2023-12-22T07:05:33;100339.50;;;10.55;71.33
66524;BME280;53350;52.210;5.160;2023-12-22T07:08:02;100330.09;;;10.53;71.75
66524;BME280;53350;52.210;5.160;2023-12-22T07:10:29;100318.06;;;10.55;71.77
66524;BME280;53350;52.210;5.160;2023-12-22T07:12:55;100334.28;;;10.58;72.08
66524;BME280;53350;52.210;5.160;2023-12-22T07:15:23;100331.81;;;10.54;72.46
66524;BME280;53350;52.210;5.160;2023-12-22T07:17:50;100327.50;;;10.56;72.47
66524;BME280;53350;52.210;5.160;2023-12-22T07:20:16;100338.53;;;10.61;72.47
66524;BME280;53350;52.210;5.160;2023-12-22T07:22:44;100330.81;;;10.61;72.62
66524;BME280;53350;52.210;5.160;2023-12-22T07:25:10;100339.28;;;10.66;72.07
66524;BME280;53350;52.210;5.160;2023-12-22T07:27:37;100331.63;;;10.63;71.92
66524;BME280;53350;52.210;5.160;2023-12-22T07:30:04;100329.75;;;10.70;72.00
66524;BME280;53350;52.210;5.160;2023-12-22T07:32:32;100331.41;;;10.74;72.00
66524;BME280;53350;52.210;5.160;2023-12-22T07:34:59;100329.63;;;10.76;72.16
66524;BME280;53350;52.210;5.160;2023-12-22T07:37:25;100336.66;;;10.69;72.83
66524;BME280;53350;52.210;5.160;2023-12-22T07:39:52;100323.91;;;10.61;73.55
66524;BME280;53350;52.210;5.160;2023-12-22T07:42:18;100315.41;;;10.58;74.45
66524;BME280;53350;52.210;5.160;2023-12-22T07:44:44;100310.34;;;10.55;75.38
66524;BME280;53350;52.210;5.160;2023-12-22T07:47:11;100313.75;;;10.55;76.40
66524;BME280;53350;52.210;5.160;2023-12-22T07:49:39;100320.69;;;10.52;77.04
66524;BME280;53350;52.210;5.160;2023-12-22T07:52:05;100322.50;;;10.47;77.45
66524;BME280;53350;52.210;5.160;2023-12-22T07:54:32;100326.81;;;10.46;77.69
66524;BME280;53350;52.210;5.160;2023-12-22T07:56:58;100325.94;;;10.47;78.00
66524;BME280;53350;52.210;5.160;2023-12-22T07:59:26;100332.75;;;10.50;78.13
66524;BME280;53350;52.210;5.160;2023-12-22T08:01:52;100341.38;;;10.49;78.27
66524;BME280;53350;52.210;5.160;2023-12-22T08:04:18;100337.84;;;10.51;78.29
66524;BME280;53350;52.210;5.160;2023-12-22T08:06:46;100337.00;;;10.52;78.50
66524;BME280;53350;52.210;5.160;2023-12-22T08:09:13;100355.84;;;10.54;78.52
66524;BME280;53350;52.210;5.160;2023-12-22T08:11:39;100330.97;;;10.53;78.66
66524;BME280;53350;52.210;5.160;2023-12-22T08:14:05;100331.91;;;10.49;79.14
66524;BME280;53350;52.210;5.160;2023-12-22T08:16:32;100337.25;;;10.38;79.89
66524;BME280;53350;52.210;5.160;2023-12-22T08:18:58;100329.50;;;10.41;79.47
66524;BME280;53350;52.210;5.160;2023-12-22T08:21:25;100332.09;;;10.40;79.76
66524;BME280;53350;52.210;5.160;2023-12-22T08:23:53;100320.94;;;10.39;79.96
66524;BME280;53350;52.210;5.160;2023-12-22T08:26:20;100321.00;;;10.36;80.29
66524;BME280;53350;52.210;5.160;2023-12-22T08:28:46;100311.44;;;10.43;80.09
66524;BME280;53350;52.210;5.160;2023-12-22T08:31:13;100297.72;;;10.41;80.69
66524;BME280;53350;52.210;5.160;2023-12-22T08:33:39;100292.63;;;10.39;80.99
66524;BME280;53350;52.210;5.160;2023-12-22T08:36:08;100290.28;;;10.27;81.95
66524;BME280;53350;52.210;5.160;2023-12-22T08:38:35;100296.94;;;10.39;81.80
66524;BME280;53350;52.210;5.160;2023-12-22T08:41:06;100293.47;;;10.40;82.47
66524;BME280;53350;52.210;5.160;2023-12-22T08:43:32;100300.25;;;10.44;82.71
66524;BME280;53350;52.210;5.160;2023-12-22T08:45:59;100312.19;;;10.48;82.89
66524;BME280;53350;52.210;5.160;2023-12-22T08:48:26;100309.50;;;10.53;82.85
66524;BME280;53350;52.210;5.160;2023-12-22T08:50:52;100300.94;;;10.52;83.10
66524;BME280;53350;52.210;5.160;2023-12-22T08:53:18;100306.88;;;10.56;83.13
66524;BME280;53350;52.210;5.160;2023-12-22T08:55:45;100297.41;;;10.56;83.41
66524;BME280;53350;52.210;5.160;2023-12-22T08:58:13;100306.69;;;10.65;82.84
66524;BME280;53350;52.210;5.160;2023-12-22T09:00:39;100304.94;;;10.66;82.72
66524;BME280;53350;52.210;5.160;2023-12-22T09:03:06;100292.84;;;10.69;82.50
66524;BME280;53350;52.210;5.160;2023-12-22T09:05:33;100311.66;;;10.73;82.34
66524;BME280;53350;52.210;5.160;2023-12-22T09:07:59;100316.81;;;10.73;82.30
66524;BME280;53350;52.210;5.160;2023-12-22T09:10:25;100309.03;;;10.74;80.10
66524;BME280;53350;52.210;5.160;2023-12-22T09:12:52;100318.78;;;10.60;77.78
66524;BME280;53350;52.210;5.160;2023-12-22T09:15:20;100325.22;;;10.40;74.17
66524;BME280;53350;52.210;5.160;2023-12-22T09:17:46;100325.44;;;10.26;74.67
66524;BME280;53350;52.210;5.160;2023-12-22T09:20:12;100323.06;;;10.17;75.93
66524;BME280;53350;52.210;5.160;2023-12-22T09:22:39;100348.16;;;10.04;77.58
66524;BME280;53350;52.210;5.160;2023-12-22T09:25:06;100325.16;;;9.97;77.96
66524;BME280;53350;52.210;5.160;2023-12-22T09:27:33;100325.22;;;9.94;77.76
66524;BME280;53350;52.210;5.160;2023-12-22T09:30:00;100310.69;;;9.89;79.11
66524;BME280;53350;52.210;5.160;2023-12-22T09:32:28;100311.41;;;9.96;80.31
66524;BME280;53350;52.210;5.160;2023-12-22T09:34:54;100306.19;;;10.02;80.94
66524;BME280;53350;52.210;5.160;2023-12-22T09:37:24;100299.22;;;10.07;81.83
66524;BME280;53350;52.210;5.160;2023-12-22T09:39:50;100305.97;;;10.13;82.61
66524;BME280;53350;52.210;5.160;2023-12-22T09:42:17;100298.97;;;10.21;83.48
66524;BME280;53350;52.210;5.160;2023-12-22T09:44:43;100290.28;;;10.27;83.83
66524;BME280;53350;52.210;5.160;2023-12-22T09:47:12;100308.09;;;10.38;84.23
66524;BME280;53350;52.210;5.160;2023-12-22T09:49:40;100301.03;;;10.48;84.65
66524;BME280;53350;52.210;5.160;2023-12-22T09:52:07;100293.94;;;10.59;84.09
66524;BME280;53350;52.210;5.160;2023-12-22T09:54:34;100307.59;;;10.63;84.43
66524;BME280;53350;52.210;5.160;2023-12-22T09:57:02;100299.66;;;10.73;84.10
66524;BME280;53350;52.210;5.160;2023-12-22T09:59:30;100295.28;;;10.75;83.86
66524;BME280;53350;52.210;5.160;2023-12-22T10:01:59;100301.16;;;10.82;83.98
66524;BME280;53350;52.210;5.160;2023-12-22T10:04:28;100293.25;;;10.90;83.34
66524;BME280;53350;52.210;5.160;2023-12-22T10:06:58;100288.38;;;10.77;83.28
66524;BME280;53350;52.210;5.160;2023-12-22T10:09:25;100307.78;;;10.94;83.30
66524;BME280;53350;52.210;5.160;2023-12-22T10:11:52;100293.06;;;10.98;83.79
66524;BME280;53350;52.210;5.160;2023-12-22T10:14:20;100302.41;;;11.03;83.13
66524;BME280;53350;52.210;5.160;2023-12-22T10:16:48;100324.75;;;11.03;83.07
66524;BME280;53350;52.210;5.160;2023-12-22T10:19:14;100306.66;;;11.06;83.45
66524;BME280;53350;52.210;5.160;2023-12-22T10:21:41;100319.47;;;11.09;83.51
66524;BME280;53350;52.210;5.160;2023-12-22T10:24:38;100329.66;;;11.13;83.14
66524;BME280;53350;52.210;5.160;2023-12-22T10:27:05;100329.66;;;11.13;82.43
66524;BME280;53350;52.210;5.160;2023-12-22T10:29:31;100315.81;;;11.18;82.55
66524;BME280;53350;52.210;5.160;2023-12-22T10:32:00;100314.16;;;11.17;82.94
66524;BME280;53350;52.210;5.160;2023-12-22T10:34:28;100307.94;;;11.25;82.79
66524;BME280;53350;52.210;5.160;2023-12-22T10:36:54;100332.91;;;11.22;82.88
66524;BME280;53350;52.210;5.160;2023-12-22T10:39:22;100340.47;;;11.29;82.28
66524;BME280;53350;52.210;5.160;2023-12-22T10:41:48;100338.59;;;11.36;81.96
66524;BME280;53350;52.210;5.160;2023-12-22T10:44:15;100347.13;;;11.38;81.30
66524;BME280;53350;52.210;5.160;2023-12-22T10:46:42;100339.34;;;11.41;81.00
66524;BME280;53350;52.210;5.160;2023-12-22T10:49:09;100327.38;;;11.39;81.16
66524;BME280;53350;52.210;5.160;2023-12-22T10:51:35;100331.63;;;11.41;80.53
66524;BME280;53350;52.210;5.160;2023-12-22T10:54:04;100329.03;;;11.41;80.68
66524;BME280;53350;52.210;5.160;2023-12-22T10:56:32;100330.59;;;11.47;80.18
66524;BME280;53350;52.210;5.160;2023-12-22T10:58:58;100332.22;;;11.51;80.03
66524;BME280;53350;52.210;5.160;2023-12-22T11:01:27;100316.69;;;11.53;79.70
66524;BME280;53350;52.210;5.160;2023-12-22T11:03:57;100318.25;;;11.60;79.07
66524;BME280;53350;52.210;5.160;2023-12-22T11:06:26;100307.13;;;11.58;79.21
66524;BME280;53350;52.210;5.160;2023-12-22T11:08:56;100314.00;;;11.59;78.83
66524;BME280;53350;52.210;5.160;2023-12-22T11:11:27;100317.38;;;11.61;78.85
66524;BME280;53350;52.210;5.160;2023-12-22T11:13:56;100306.06;;;11.66;78.16
66524;BME280;53350;52.210;5.160;2023-12-22T11:16:24;100308.91;;;11.56;78.63
66524;BME280;53350;52.210;5.160;2023-12-22T11:18:53;100303.59;;;11.62;78.81
66524;BME280;53350;52.210;5.160;2023-12-22T11:21:20;100296.44;;;11.73;78.03
66524;BME280;53350;52.210;5.160;2023-12-22T11:23:49;100304.16;;;11.73;78.43
66524;BME280;53350;52.210;5.160;2023-12-22T11:26:16;100304.22;;;11.72;78.56
66524;BME280;53350;52.210;5.160;2023-12-22T11:28:44;100293.91;;;11.72;78.81
66524;BME280;53350;52.210;5.160;2023-12-22T11:31:13;100296.34;;;11.76;78.29
66524;BME280;53350;52.210;5.160;2023-12-22T11:33:43;100303.16;;;11.79;78.07
66524;BME280;53350;52.210;5.160;2023-12-22T11:36:11;100307.41;;;11.80;77.38
66524;BME280;53350;52.210;5.160;2023-12-22T11:38:38;100294.59;;;11.77;77.30
66524;BME280;53350;52.210;5.160;2023-12-22T11:41:06;100306.66;;;11.76;77.08
66524;BME280;53350;52.210;5.160;2023-12-22T11:43:36;100301.34;;;11.82;76.86
66524;BME280;53350;52.210;5.160;2023-12-22T11:46:04;100300.47;;;11.83;76.41
66524;BME280;53350;52.210;5.160;2023-12-22T11:48:32;100283.06;;;11.90;76.02
66524;BME280;53350;52.210;5.160;2023-12-22T11:50:58;100265.22;;;11.82;76.86
66524;BME280;53350;52.210;5.160;2023-12-22T11:53:30;100278.84;;;11.88;76.69
66524;BME280;53350;52.210;5.160;2023-12-22T11:56:02;100261.53;;;11.91;76.73
66524;BME280;53350;52.210;5.160;2023-12-22T11:58:39;100257.19;;;11.93;77.05
66524;BME280;53350;52.210;5.160;2023-12-22T12:01:07;100259.78;;;11.95;77.14
66524;BME280;53350;52.210;5.160;2023-12-22T12:03:39;100259.72;;;11.96;77.16
66524;BME280;53350;52.210;5.160;2023-12-22T12:06:17;100246.00;;;11.93;76.91
66524;BME280;53350;52.210;5.160;2023-12-22T12:08:47;100255.31;;;12.00;76.83
66524;BME280;53350;52.210;5.160;2023-12-22T12:11:16;100245.75;;;12.04;76.42
66524;BME280;53350;52.210;5.160;2023-12-22T12:13:43;100256.09;;;12.04;76.79
66524;BME280;53350;52.210;5.160;2023-12-22T12:16:10;100262.91;;;12.05;76.62
66524;BME280;53350;52.210;5.160;2023-12-22T12:18:39;100250.88;;;12.05;76.63
66524;BME280;53350;52.210;5.160;2023-12-22T12:21:06;100237.16;;;12.03;76.83
66524;BME280;53350;52.210;5.160;2023-12-22T12:23:33;100246.56;;;12.06;76.99
66524;BME280;53350;52.210;5.160;2023-12-22T12:25:59;100235.25;;;12.10;76.61
66524;BME280;53350;52.210;5.160;2023-12-22T12:28:28;100274.91;;;12.07;76.75
66524;BME280;53350;52.210;5.160;2023-12-22T12:30:59;100236.94;;;12.11;76.13
66524;BME280;53350;52.210;5.160;2023-12-22T12:33:26;100225.66;;;12.13;76.26
66524;BME280;53350;52.210;5.160;2023-12-22T12:35:56;100240.31;;;12.13;76.11
66524;BME280;53350;52.210;5.160;2023-12-22T12:38:24;100235.31;;;12.08;76.49
66524;BME280;53350;52.210;5.160;2023-12-22T12:40:56;100213.13;;;12.01;75.66
66524;BME280;53350;52.210;5.160;2023-12-22T12:43:24;100246.47;;;12.09;76.05
66524;BME280;53350;52.210;5.160;2023-12-22T12:45:51;100237.88;;;12.08;75.97
66524;BME280;53350;52.210;5.160;2023-12-22T12:48:18;100251.72;;;12.06;76.16
66524;BME280;53350;52.210;5.160;2023-12-22T12:50:47;100246.47;;;12.09;75.92
66524;BME280;53350;52.210;5.160;2023-12-22T12:53:15;100261.94;;;12.09;76.08
66524;BME280;53350;52.210;5.160;2023-12-22T12:55:41;100247.28;;;12.11;75.99